Maersk Lima — VRKB9 — position and weather

sailwx.info

Track history (hours):
 
Tides and Currents Weather Stations Pressure Air Temp Water Temp Dewpoint Dewpoint Depression Visibility Wind Speed Wind Dir Waves Ship Positions

Maersk Lima

Last reported at 2017-Nov-20 00:30 UTC. Time now 2017-Nov-22 09:01 UTC.
Position N 43°57' E 008°52'.

Length 300 m; draft 9.3 m.

Type: Ship (hazmat cat A). MMSI: 477423600.

Date/timePositionNaut miles runAvg speedWind from/ knotsBaromVisibWave heightAir tempDewpointWater temp
2017-Nov-20 00:30N 43°57' E 008°52'612.4
2017-Nov-20 00:00N 43°52' E 008°57'612.4
2017-Nov-19 23:30N 43°47' E 009°02'612.4
2017-Nov-19 23:00N 43°42' E 009°06'612.6
2017-Nov-19 22:30N 43°36' E 009°10'612.6
2017-Nov-19 22:00N 43°31' E 009°15'612.3
2017-Nov-19 21:30N 43°25' E 009°19'612.3
2017-Nov-19 21:00N 43°20' E 009°23'612.8
2017-Nov-19 20:30N 43°15' E 009°28'713.7
2017-Nov-19 20:00N 43°09' E 009°32'713.4
2017-Nov-19 19:30N 43°03' E 009°37'612.7
2017-Nov-19 19:00N 42°57' E 009°40'2613.2
2017-Nov-19 17:02N 42°31' E 009°48'012.7
2017-Nov-19 17:00N 42°31' E 009°48'42012.8
2017-Nov-18 08:09N 36°11' E 013°38'1515.3
2017-Nov-18 07:08N 36°02' E 013°53'215.2
2017-Nov-18 07:00N 36°01' E 013°56'815.2
2017-Nov-18 06:30N 35°56' E 014°03'815.4
2017-Nov-18 06:00N 35°52' E 014°11'715.0
2017-Nov-18 05:30N 35°48' E 014°19'715.0
2017-Nov-18 05:00N 35°43' E 014°26'812.3
2017-Nov-18 04:21N 35°48' E 014°35'2 0.3
2017-Nov-17 21:47N 35°49' E 014°33'0 0.0
2017-Nov-17 21:30N 35°49' E 014°33'0 0.0
2017-Nov-17 21:00N 35°49' E 014°33'0 0.0
2017-Nov-17 20:22N 35°49' E 014°33'0 0.0
2017-Nov-17 19:59N 35°49' E 014°33'0 0.0
2017-Nov-17 19:29N 35°49' E 014°33'0 0.0
2017-Nov-17 19:00N 35°49' E 014°33'0 0.0
2017-Nov-17 18:30N 35°49' E 014°33'0 0.0
2017-Nov-17 18:00N 35°49' E 014°33'0 0.0
2017-Nov-17 15:38N 35°49' E 014°33'0 0.0
2017-Nov-17 15:29N 35°49' E 014°33'0 0.0
2017-Nov-17 14:59N 35°49' E 014°33'0 0.1
2017-Nov-17 14:26N 35°49' E 014°33'1 3.4
2017-Nov-17 14:00N 35°49' E 014°34'3 5.4
2017-Nov-17 13:30N 35°47' E 014°37'2 5.1
2017-Nov-17 13:00N 35°44' E 014°36'4 8.1
2017-Nov-17 12:30N 35°43' E 014°32'714.9
2017-Nov-17 12:00N 35°44' E 014°23'815.3
2017-Nov-17 11:30N 35°48' E 014°15'815.3
2017-Nov-17 11:00N 35°52' E 014°07'815.2
2017-Nov-17 10:30N 35°56' E 013°59'815.5
2017-Nov-17 09:59N 36°00' E 013°51'815.6
2017-Nov-17 09:30N 36°05' E 013°43'815.4
2017-Nov-17 09:00N 36°09' E 013°35'815.5
2017-Nov-17 08:28N 36°14' E 013°27'  
2017-Nov-14 21:18N 35°60' W 005°14'517.2
2017-Nov-14 21:00N 35°59' W 005°20'816.5
2017-Nov-14 20:30N 35°57' W 005°30'9415.0
2017-Nov-14 14:14N 36°08' W 007°26'514.9
2017-Nov-14 13:52N 36°10' W 007°32'514.7
2017-Nov-14 13:30N 36°11' W 007°39'814.8
2017-Nov-14 13:00N 36°13' W 007°48'714.7
2017-Nov-14 12:30N 36°15' W 007°56'8114.5
2017-Nov-14 06:54N 36°45' W 009°30'615.7
2017-Nov-14 06:31N 36°51' W 009°34'816.0
2017-Nov-14 06:00N 36°59' W 009°36'1116.1
2017-Nov-14 05:18N 37°10' W 009°39'516.1
2017-Nov-14 05:00N 37°14' W 009°40'1516.2
2017-Nov-14 04:06N 37°28' W 009°45'116.1
2017-Nov-14 04:01N 37°30' W 009°45'816.1
2017-Nov-14 03:30N 37°38' W 009°48'815.9
2017-Nov-14 03:00N 37°45' W 009°50'815.8
2017-Nov-14 02:30N 37°53' W 009°52'816.4
2017-Nov-14 02:01N 38°01' W 009°54'816.1
2017-Nov-14 01:30N 38°09' W 009°57'816.2
2017-Nov-14 01:00N 38°17' W 009°59'816.2
2017-Nov-14 00:30N 38°25' W 010°01'815.9
2017-Nov-14 00:00N 38°32' W 010°04'815.9
2017-Nov-13 23:30N 38°40' W 010°06'816.0
2017-Nov-13 23:00N 38°48' W 010°07'816.0
2017-Nov-13 22:30N 38°56' W 010°08'816.0
2017-Nov-13 22:00N 39°04' W 010°08'53515.4
2017-Nov-12 11:09N 47°39' W 006°47'314.8
2017-Nov-12 10:58N 47°42' W 006°45'714.8
2017-Nov-12 10:30N 47°48' W 006°41'714.8
2017-Nov-12 10:00N 47°55' W 006°36'1314.8
2017-Nov-12 09:08N 48°06' W 006°28'214.3
2017-Nov-12 09:00N 48°08' W 006°26'1014.6
2017-Nov-12 08:20N 48°16' W 006°19'3114.8
2017-Nov-12 06:15N 48°43' W 005°57'1014.9
2017-Nov-12 05:36N 48°52' W 005°50'1214.8
2017-Nov-12 04:45N 48°59' W 005°35'2414.5
2017-Nov-12 03:05N 49°12' W 005°04'614.2
2017-Nov-12 02:41N 49°15' W 004°56'4013.5
2017-Nov-11 23:44N 49°37' W 004°05'1513.2
2017-Nov-11 22:34N 49°45' W 003°45'313.3
2017-Nov-11 22:22N 49°45' W 003°40'513.5
2017-Nov-11 21:58N 49°47' W 003°33'714.0
2017-Nov-11 21:30N 49°51' W 003°24'714.6
2017-Nov-11 21:00N 49°55' W 003°15'815.1
2017-Nov-11 20:31N 49°58' W 003°05'815.0
2017-Nov-11 20:00N 50°01' W 002°54'815.5
2017-Nov-11 19:30N 50°03' W 002°42'815.8
2017-Nov-11 19:00N 50°05' W 002°30'816.0
2017-Nov-11 18:30N 50°07' W 002°18'816.2
2017-Nov-11 18:00N 50°09' W 002°06'816.0
2017-Nov-11 17:30N 50°11' W 001°54'815.5
2017-Nov-11 17:01N 50°13' W 001°42'815.5
2017-Nov-11 16:30N 50°15' W 001°30'714.9
2017-Nov-11 16:00N 50°16' W 001°19'714.5
2017-Nov-11 15:31N 50°18' W 001°08'713.5
2017-Nov-11 14:59N 50°20' W 000°57'612.3
2017-Nov-11 14:30N 50°22' W 000°48'712.2
2017-Nov-11 13:56N 50°24' W 000°38'712.0
2017-Nov-11 13:24N 50°25' W 000°28'512.3
2017-Nov-11 13:00N 50°26' W 000°21'612.9
2017-Nov-11 12:30N 50°28' W 000°11'713.3
2017-Nov-11 12:00N 50°30' W 000°01'713.6
2017-Nov-11 11:30N 50°32' E 000°09'714.1
2017-Nov-11 11:00N 50°34' E 000°20'714.5
2017-Nov-11 10:30N 50°36' E 000°31'714.6
2017-Nov-11 10:00N 50°39' E 000°41'714.1
2017-Nov-11 09:30N 50°42' E 000°51'714.9
2017-Nov-11 09:00N 50°47' E 001°01'714.9
2017-Nov-11 08:30N 50°51' E 001°10'815.1
2017-Nov-11 08:00N 50°56' E 001°19'714.9
2017-Nov-11 07:30N 51°01' E 001°28'714.4
2017-Nov-11 07:00N 51°06' E 001°36'713.0
2017-Nov-11 06:30N 51°11' E 001°43'612.8
2017-Nov-11 06:00N 51°17' E 001°48'713.6
2017-Nov-11 05:30N 51°23' E 001°53'714.1
2017-Nov-11 05:00N 51°29' E 001°59'714.5
2017-Nov-11 04:30N 51°34' E 002°07'714.5
2017-Nov-11 04:00N 51°40' E 002°15'714.8
2017-Nov-11 03:30N 51°45' E 002°22'1214.9
2017-Nov-11 02:42N 51°54' E 002°35'314.9
2017-Nov-11 02:29N 51°56' E 002°39'714.9
2017-Nov-11 02:00N 52°02' E 002°47'814.9
2017-Nov-11 01:29N 52°07' E 002°55'714.9
2017-Nov-11 00:59N 52°13' E 003°02'5613.2
2017-Nov-10 20:45N 52°57' E 003°60'311.5
2017-Nov-10 20:28N 52°59' E 004°04'510.0
2017-Nov-10 20:01N 53°02' E 004°10'611.2
2017-Nov-10 19:31N 53°06' E 004°17'612.1
2017-Nov-10 19:01N 53°10' E 004°24'713.8
2017-Nov-10 18:30N 53°16' E 004°30'1014.5
2017-Nov-10 17:49N 53°25' E 004°34'11211.3
2017-Nov-10 07:55N 53°59' E 007°35'913.3
2017-Nov-10 07:14N 53°53' E 007°46'2 9.4
2017-Nov-10 07:00N 53°51' E 007°48'611.7
2017-Nov-10 06:30N 53°49' E 007°57'917.1
2017-Nov-10 06:00N 53°41' E 008°05'612.7
2017-Nov-10 05:30N 53°36' E 008°10'0 0.9
2017-Nov-10 05:00N 53°35' E 008°09'0 0.0
2017-Nov-10 04:30N 53°35' E 008°09'0 0.0
2017-Nov-10 04:00N 53°35' E 008°09'0 0.0
2017-Nov-10 03:30N 53°35' E 008°09'0 0.0
2017-Nov-10 03:00N 53°35' E 008°09'0 0.0
2017-Nov-10 02:30N 53°35' E 008°09'0 0.0
2017-Nov-10 02:00N 53°35' E 008°09'0 0.0
2017-Nov-10 01:30N 53°35' E 008°09'0 0.0
2017-Nov-10 01:00N 53°35' E 008°09'  
Track history (hours):
 
Tides and Currents Weather Stations Pressure Air Temp Water Temp Dewpoint Dewpoint Depression Visibility Wind Speed Wind Dir Waves Ship Positions

Maersk Lima

Last reported at 2017-Nov-20 00:30 UTC. Time now 2017-Nov-22 09:01 UTC.
Position N 43°57' E 008°52'.

Length 300 m; draft 9.3 m.

Type: Ship (hazmat cat A). MMSI: 477423600.

Date/timePositionNaut miles runAvg speedWind from/ knotsBaromVisibWave heightAir tempDewpointWater temp
2017-Nov-20 00:30N 43°57' E 008°52'612.4
2017-Nov-20 00:00N 43°52' E 008°57'612.4
2017-Nov-19 23:30N 43°47' E 009°02'612.4
2017-Nov-19 23:00N 43°42' E 009°06'612.6
2017-Nov-19 22:30N 43°36' E 009°10'612.6
2017-Nov-19 22:00N 43°31' E 009°15'612.3
2017-Nov-19 21:30N 43°25' E 009°19'612.3
2017-Nov-19 21:00N 43°20' E 009°23'612.8
2017-Nov-19 20:30N 43°15' E 009°28'713.7
2017-Nov-19 20:00N 43°09' E 009°32'713.4
2017-Nov-19 19:30N 43°03' E 009°37'612.7
2017-Nov-19 19:00N 42°57' E 009°40'2613.2
2017-Nov-19 17:02N 42°31' E 009°48'012.7
2017-Nov-19 17:00N 42°31' E 009°48'42012.8
2017-Nov-18 08:09N 36°11' E 013°38'1515.3
2017-Nov-18 07:08N 36°02' E 013°53'215.2
2017-Nov-18 07:00N 36°01' E 013°56'815.2
2017-Nov-18 06:30N 35°56' E 014°03'815.4
2017-Nov-18 06:00N 35°52' E 014°11'715.0
2017-Nov-18 05:30N 35°48' E 014°19'715.0
2017-Nov-18 05:00N 35°43' E 014°26'812.3
2017-Nov-18 04:21N 35°48' E 014°35'2 0.3
2017-Nov-17 21:47N 35°49' E 014°33'0 0.0
2017-Nov-17 21:30N 35°49' E 014°33'0 0.0
2017-Nov-17 21:00N 35°49' E 014°33'0 0.0
2017-Nov-17 20:22N 35°49' E 014°33'0 0.0
2017-Nov-17 19:59N 35°49' E 014°33'0 0.0
2017-Nov-17 19:29N 35°49' E 014°33'0 0.0
2017-Nov-17 19:00N 35°49' E 014°33'0 0.0
2017-Nov-17 18:30N 35°49' E 014°33'0 0.0
2017-Nov-17 18:00N 35°49' E 014°33'0 0.0
2017-Nov-17 15:38N 35°49' E 014°33'0 0.0
2017-Nov-17 15:29N 35°49' E 014°33'0 0.0
2017-Nov-17 14:59N 35°49' E 014°33'0 0.1
2017-Nov-17 14:26N 35°49' E 014°33'1 3.4
2017-Nov-17 14:00N 35°49' E 014°34'3 5.4
2017-Nov-17 13:30N 35°47' E 014°37'2 5.1
2017-Nov-17 13:00N 35°44' E 014°36'4 8.1
2017-Nov-17 12:30N 35°43' E 014°32'714.9
2017-Nov-17 12:00N 35°44' E 014°23'815.3
2017-Nov-17 11:30N 35°48' E 014°15'815.3
2017-Nov-17 11:00N 35°52' E 014°07'815.2
2017-Nov-17 10:30N 35°56' E 013°59'815.5
2017-Nov-17 09:59N 36°00' E 013°51'815.6
2017-Nov-17 09:30N 36°05' E 013°43'815.4
2017-Nov-17 09:00N 36°09' E 013°35'815.5
2017-Nov-17 08:28N 36°14' E 013°27'  
2017-Nov-14 21:18N 35°60' W 005°14'517.2
2017-Nov-14 21:00N 35°59' W 005°20'816.5
2017-Nov-14 20:30N 35°57' W 005°30'9415.0
2017-Nov-14 14:14N 36°08' W 007°26'514.9
2017-Nov-14 13:52N 36°10' W 007°32'514.7
2017-Nov-14 13:30N 36°11' W 007°39'814.8
2017-Nov-14 13:00N 36°13' W 007°48'714.7
2017-Nov-14 12:30N 36°15' W 007°56'8114.5
2017-Nov-14 06:54N 36°45' W 009°30'615.7
2017-Nov-14 06:31N 36°51' W 009°34'816.0
2017-Nov-14 06:00N 36°59' W 009°36'1116.1
2017-Nov-14 05:18N 37°10' W 009°39'516.1
2017-Nov-14 05:00N 37°14' W 009°40'1516.2
2017-Nov-14 04:06N 37°28' W 009°45'116.1
2017-Nov-14 04:01N 37°30' W 009°45'816.1
2017-Nov-14 03:30N 37°38' W 009°48'815.9
2017-Nov-14 03:00N 37°45' W 009°50'815.8
2017-Nov-14 02:30N 37°53' W 009°52'816.4
2017-Nov-14 02:01N 38°01' W 009°54'816.1
2017-Nov-14 01:30N 38°09' W 009°57'816.2
2017-Nov-14 01:00N 38°17' W 009°59'816.2
2017-Nov-14 00:30N 38°25' W 010°01'815.9
2017-Nov-14 00:00N 38°32' W 010°04'815.9
2017-Nov-13 23:30N 38°40' W 010°06'816.0
2017-Nov-13 23:00N 38°48' W 010°07'816.0
2017-Nov-13 22:30N 38°56' W 010°08'816.0
2017-Nov-13 22:00N 39°04' W 010°08'53515.4
2017-Nov-12 11:09N 47°39' W 006°47'314.8
2017-Nov-12 10:58N 47°42' W 006°45'714.8
2017-Nov-12 10:30N 47°48' W 006°41'714.8
2017-Nov-12 10:00N 47°55' W 006°36'1314.8
2017-Nov-12 09:08N 48°06' W 006°28'214.3
2017-Nov-12 09:00N 48°08' W 006°26'1014.6
2017-Nov-12 08:20N 48°16' W 006°19'3114.8
2017-Nov-12 06:15N 48°43' W 005°57'1014.9
2017-Nov-12 05:36N 48°52' W 005°50'1214.8
2017-Nov-12 04:45N 48°59' W 005°35'2414.5
2017-Nov-12 03:05N 49°12' W 005°04'614.2
2017-Nov-12 02:41N 49°15' W 004°56'4013.5
2017-Nov-11 23:44N 49°37' W 004°05'1513.2
2017-Nov-11 22:34N 49°45' W 003°45'313.3
2017-Nov-11 22:22N 49°45' W 003°40'513.5
2017-Nov-11 21:58N 49°47' W 003°33'714.0
2017-Nov-11 21:30N 49°51' W 003°24'714.6
2017-Nov-11 21:00N 49°55' W 003°15'815.1
2017-Nov-11 20:31N 49°58' W 003°05'815.0
2017-Nov-11 20:00N 50°01' W 002°54'815.5
2017-Nov-11 19:30N 50°03' W 002°42'815.8
2017-Nov-11 19:00N 50°05' W 002°30'816.0
2017-Nov-11 18:30N 50°07' W 002°18'816.2
2017-Nov-11 18:00N 50°09' W 002°06'816.0
2017-Nov-11 17:30N 50°11' W 001°54'815.5
2017-Nov-11 17:01N 50°13' W 001°42'815.5
2017-Nov-11 16:30N 50°15' W 001°30'714.9
2017-Nov-11 16:00N 50°16' W 001°19'714.5
2017-Nov-11 15:31N 50°18' W 001°08'713.5
2017-Nov-11 14:59N 50°20' W 000°57'612.3
2017-Nov-11 14:30N 50°22' W 000°48'712.2
2017-Nov-11 13:56N 50°24' W 000°38'712.0
2017-Nov-11 13:24N 50°25' W 000°28'512.3
2017-Nov-11 13:00N 50°26' W 000°21'612.9
2017-Nov-11 12:30N 50°28' W 000°11'713.3
2017-Nov-11 12:00N 50°30' W 000°01'713.6
2017-Nov-11 11:30N 50°32' E 000°09'714.1
2017-Nov-11 11:00N 50°34' E 000°20'714.5
2017-Nov-11 10:30N 50°36' E 000°31'714.6
2017-Nov-11 10:00N 50°39' E 000°41'714.1
2017-Nov-11 09:30N 50°42' E 000°51'714.9
2017-Nov-11 09:00N 50°47' E 001°01'714.9
2017-Nov-11 08:30N 50°51' E 001°10'815.1
2017-Nov-11 08:00N 50°56' E 001°19'714.9
2017-Nov-11 07:30N 51°01' E 001°28'714.4
2017-Nov-11 07:00N 51°06' E 001°36'713.0
2017-Nov-11 06:30N 51°11' E 001°43'612.8
2017-Nov-11 06:00N 51°17' E 001°48'713.6
2017-Nov-11 05:30N 51°23' E 001°53'714.1
2017-Nov-11 05:00N 51°29' E 001°59'714.5
2017-Nov-11 04:30N 51°34' E 002°07'714.5
2017-Nov-11 04:00N 51°40' E 002°15'714.8
2017-Nov-11 03:30N 51°45' E 002°22'1214.9
2017-Nov-11 02:42N 51°54' E 002°35'314.9
2017-Nov-11 02:29N 51°56' E 002°39'714.9
2017-Nov-11 02:00N 52°02' E 002°47'814.9
2017-Nov-11 01:29N 52°07' E 002°55'714.9
2017-Nov-11 00:59N 52°13' E 003°02'5613.2
2017-Nov-10 20:45N 52°57' E 003°60'311.5
2017-Nov-10 20:28N 52°59' E 004°04'510.0
2017-Nov-10 20:01N 53°02' E 004°10'611.2
2017-Nov-10 19:31N 53°06' E 004°17'612.1
2017-Nov-10 19:01N 53°10' E 004°24'713.8
2017-Nov-10 18:30N 53°16' E 004°30'1014.5
2017-Nov-10 17:49N 53°25' E 004°34'11211.3
2017-Nov-10 07:55N 53°59' E 007°35'913.3
2017-Nov-10 07:14N 53°53' E 007°46'2 9.4
2017-Nov-10 07:00N 53°51' E 007°48'611.7
2017-Nov-10 06:30N 53°49' E 007°57'917.1
2017-Nov-10 06:00N 53°41' E 008°05'612.7
2017-Nov-10 05:30N 53°36' E 008°10'0 0.9
2017-Nov-10 05:00N 53°35' E 008°09'0 0.0
2017-Nov-10 04:30N 53°35' E 008°09'0 0.0
2017-Nov-10 04:00N 53°35' E 008°09'0 0.0
2017-Nov-10 03:30N 53°35' E 008°09'0 0.0
2017-Nov-10 03:00N 53°35' E 008°09'0 0.0
2017-Nov-10 02:30N 53°35' E 008°09'0 0.0
2017-Nov-10 02:00N 53°35' E 008°09'0 0.0
2017-Nov-10 01:30N 53°35' E 008°09'0 0.0
2017-Nov-10 01:00N 53°35' E 008°09'  

Dump ship's entire track history